Time;durP1;ratioP1;P1;durP2;ratioP2;P2;SDS_P1;SDS_P2;PMS_P1;PMS_P2;Temp;Humidity;BMP_temperature;BMP_pressure;BME280_temperature;BME280_humidity;BME280_pressure;Samples;Min_cycle;Max_cycle;Signal;HPM_P1;HPM_P2
2021/06/27 00:00:18;;;;;;;15.97;14.57;;;19.80;99.90;;;;;;6149775;23;20418;-90
2021/06/27 00:02:44;;;;;;;17.93;16.20;;;19.70;99.90;;;;;;6150431;23;20445;-89
2021/06/27 00:05:15;;;;;;;16.10;14.80;;;19.70;99.90;;;;;;6143312;23;20449;-89
2021/06/27 00:07:42;;;;;;;17.43;15.67;;;19.70;99.90;;;;;;6128234;23;20397;-88
2021/06/27 00:10:12;;;;;;;16.43;14.93;;;19.70;99.90;;;;;;6142288;23;20439;-89
2021/06/27 00:12:40;;;;;;;17.00;15.50;;;19.70;99.90;;;;;;6128719;23;20397;-89
2021/06/27 00:15:09;;;;;;;16.50;14.97;;;19.70;99.90;;;;;;6123193;23;20403;-89
2021/06/27 00:17:35;;;;;;;15.47;13.97;;;19.60;99.90;;;;;;6123589;23;20417;-89
2021/06/27 00:20:02;;;;;;;15.90;14.60;;;19.50;99.90;;;;;;6123573;23;20788;-90
2021/06/27 00:22:30;;;;;;;16.73;15.13;;;19.40;99.90;;;;;;6123571;23;20418;-89
2021/06/27 00:24:57;;;;;;;17.07;15.47;;;19.40;99.90;;;;;;6125945;23;20446;-89
2021/06/27 00:27:24;;;;;;;16.60;15.20;;;19.50;99.90;;;;;;6133757;23;20415;-89
2021/06/27 00:29:50;;;;;;;16.60;14.20;;;19.50;99.90;;;;;;6126009;23;20784;-89
2021/06/27 00:32:17;;;;;;;16.37;14.87;;;19.50;99.90;;;;;;6123345;23;20414;-89
2021/06/27 00:34:44;;;;;;;17.37;15.70;;;19.40;99.90;;;;;;6123617;23;20500;-89
2021/06/27 00:37:10;;;;;;;18.57;16.73;;;19.40;99.90;;;;;;6125257;23;20433;-89
2021/06/27 00:39:38;;;;;;;16.13;14.50;;;19.40;99.90;;;;;;6125727;23;20456;-89
2021/06/27 00:42:06;;;;;;;16.30;14.90;;;19.40;99.90;;;;;;6125112;23;20415;-89
2021/06/27 00:44:32;;;;;;;14.90;13.60;;;19.30;99.90;;;;;;6125175;23;20444;-90
2021/06/27 00:46:59;;;;;;;15.30;13.70;;;19.30;99.90;;;;;;6125218;23;20412;-89
2021/06/27 00:49:26;;;;;;;15.03;13.50;;;19.30;99.90;;;;;;6125511;23;20756;-89
2021/06/27 00:51:53;;;;;;;14.93;13.53;;;19.30;99.90;;;;;;6124534;23;20436;-89
2021/06/27 00:54:20;;;;;;;16.50;14.93;;;19.30;99.90;;;;;;6125487;23;20786;-89
2021/06/27 00:56:48;;;;;;;17.37;14.13;;;19.20;99.90;;;;;;6124278;23;20405;-89
2021/06/27 00:59:15;;;;;;;16.27;14.87;;;19.20;99.90;;;;;;6124242;23;20907;-89
2021/06/27 01:01:42;;;;;;;16.30;14.67;;;19.10;99.90;;;;;;6124321;23;20421;-89
2021/06/27 01:04:08;;;;;;;17.53;15.93;;;19.10;99.90;;;;;;6124147;23;20423;-89
2021/06/27 01:06:35;;;;;;;16.70;15.10;;;19.00;99.90;;;;;;6122832;23;20444;-89
2021/06/27 01:09:02;;;;;;;16.57;15.07;;;19.00;99.90;;;;;;6124054;23;20401;-89
2021/06/27 01:11:29;;;;;;;16.53;15.03;;;19.10;99.90;;;;;;6125260;23;20441;-89
2021/06/27 01:13:58;;;;;;;17.03;15.63;;;19.00;99.90;;;;;;6132282;23;20409;-90
2021/06/27 01:16:25;;;;;;;17.90;16.37;;;19.00;99.90;;;;;;6153784;23;20389;-91
2021/06/27 01:18:54;;;;;;;15.70;14.20;;;19.00;99.90;;;;;;6128076;23;20407;-88
2021/06/27 01:21:22;;;;;;;15.43;14.03;;;18.90;99.90;;;;;;6125436;23;20432;-89
2021/06/27 01:23:49;;;;;;;16.40;14.17;;;18.90;99.90;;;;;;6125257;23;20416;-89
2021/06/27 01:26:15;;;;;;;15.87;14.23;;;18.80;99.90;;;;;;6125672;23;20450;-88
2021/06/27 01:28:42;;;;;;;15.53;14.13;;;18.80;99.90;;;;;;6126819;23;20422;-89
2021/06/27 01:31:10;;;;;;;15.20;13.70;;;18.70;99.90;;;;;;6125054;23;20423;-90
2021/06/27 01:33:37;;;;;;;15.03;13.57;;;18.70;99.90;;;;;;6125068;23;20397;-89
2021/06/27 01:36:05;;;;;;;15.23;13.97;;;18.70;99.90;;;;;;6125024;23;20409;-88
2021/06/27 01:38:35;;;;;;;15.07;13.77;;;18.80;99.90;;;;;;6125053;23;20405;-89
2021/06/27 01:41:02;;;;;;;14.60;13.40;;;18.80;99.90;;;;;;6124876;23;20429;-89
2021/06/27 01:43:29;;;;;;;14.40;13.23;;;18.80;99.90;;;;;;6125105;23;20408;-89
2021/06/27 01:45:59;;;;;;;15.67;14.30;;;18.80;99.90;;;;;;6124650;23;20455;-89
2021/06/27 01:48:26;;;;;;;16.53;15.10;;;18.80;99.90;;;;;;6132947;23;20461;-89
2021/06/27 01:50:55;;;;;;;15.63;14.13;;;18.80;99.90;;;;;;6153652;23;20429;-90
2021/06/27 01:53:23;;;;;;;14.87;13.53;;;18.80;99.90;;;;;;6129249;23;20415;-89
2021/06/27 01:56:04;;;;;;;16.30;14.67;;;18.70;99.90;;;;;;6124585;23;20892;-89
2021/06/27 01:58:31;;;;;;;14.80;13.50;;;18.70;99.90;;;;;;6124827;23;20397;-89
2021/06/27 02:00:58;;;;;;;15.57;14.07;;;18.60;99.90;;;;;;6124664;23;20435;-89
2021/06/27 02:03:24;;;;;;;15.03;13.53;;;18.60;99.90;;;;;;6124959;23;20792;-89
2021/06/27 02:05:53;;;;;;;16.03;14.53;;;18.60;99.90;;;;;;6124428;23;20451;-89
2021/06/27 02:08:20;;;;;;;16.80;15.40;;;18.50;99.90;;;;;;6124533;23;20900;-89
2021/06/27 02:10:47;;;;;;;17.27;15.67;;;18.50;99.90;;;;;;6124450;23;20480;-89
2021/06/27 02:13:15;;;;;;;14.30;13.07;;;18.40;99.90;;;;;;6124694;23;20908;-89
2021/06/27 02:15:42;;;;;;;16.67;15.00;;;18.40;99.90;;;;;;6124120;23;20408;-90
2021/06/27 02:18:27;;;;;;;16.40;15.00;;;18.50;99.90;;;;;;6124380;23;20439;-89
2021/06/27 02:20:53;;;;;;;16.20;14.70;;;18.50;99.90;;;;;;6124233;23;20747;-89
2021/06/27 02:23:20;;;;;;;17.30;15.50;;;18.40;99.90;;;;;;6124574;23;20415;-88
2021/06/27 02:25:47;;;;;;;16.20;14.87;;;18.40;99.90;;;;;;6124593;23;20437;-89
2021/06/27 02:28:15;;;;;;;17.03;15.23;;;18.30;99.90;;;;;;6124363;23;20942;-89
2021/06/27 02:30:42;;;;;;;15.93;13.33;;;18.20;99.90;;;;;;6125344;23;21181;-88
2021/06/27 02:33:11;;;;;;;15.80;14.20;;;18.30;99.90;;;;;;6125928;23;20403;-89
2021/06/27 02:35:38;;;;;;;15.50;14.07;;;18.30;99.90;;;;;;6131122;23;20430;-89
2021/06/27 02:38:04;;;;;;;15.50;14.13;;;18.30;99.90;;;;;;6135290;23;20411;-89
2021/06/27 02:40:31;;;;;;;17.33;15.53;;;18.20;99.90;;;;;;6124607;23;20755;-89
2021/06/27 02:42:58;;;;;;;16.43;14.83;;;18.20;99.90;;;;;;6128564;23;20407;-89
2021/06/27 02:45:26;;;;;;;16.40;14.90;;;18.20;99.90;;;;;;6143893;23;20447;-89
2021/06/27 02:47:53;;;;;;;16.07;14.43;;;18.10;99.90;;;;;;6136084;23;20419;-89
2021/06/27 02:50:20;;;;;;;15.70;14.33;;;18.20;99.90;;;;;;6135881;23;20439;-89
2021/06/27 02:52:47;;;;;;;15.63;14.00;;;18.20;99.90;;;;;;6138080;23;20414;-89
2021/06/27 02:55:14;;;;;;;17.07;15.47;;;18.10;99.90;;;;;;6124523;23;20415;-89
2021/06/27 02:57:42;;;;;;;15.60;14.03;;;18.20;99.90;;;;;;6124250;23;20894;-89
2021/06/27 03:00:12;;;;;;;17.13;15.50;;;18.10;99.90;;;;;;6124231;23;20428;-89
2021/06/27 03:02:40;;;;;;;16.43;14.83;;;18.10;99.90;;;;;;6124325;23;20407;-89
2021/06/27 03:05:08;;;;;;;15.80;14.23;;;18.10;99.90;;;;;;6123482;23;20915;-88
2021/06/27 03:07:35;;;;;;;16.03;14.53;;;18.10;99.90;;;;;;6124055;23;20414;-89
2021/06/27 03:10:02;;;;;;;19.83;17.77;;;18.10;99.90;;;;;;6124337;23;20428;-89
2021/06/27 03:12:29;;;;;;;15.30;13.90;;;18.10;99.90;;;;;;6131061;23;20419;-89
2021/06/27 03:14:56;;;;;;;17.00;15.50;;;18.10;99.90;;;;;;6124191;23;20414;-89
2021/06/27 03:17:23;;;;;;;15.47;14.10;;;18.10;99.90;;;;;;6135307;23;20393;-89
2021/06/27 03:19:51;;;;;;;16.47;15.13;;;18.10;99.90;;;;;;6153065;23;20406;-90
2021/06/27 03:22:18;;;;;;;17.23;15.53;;;18.10;99.90;;;;;;6126127;23;20415;-89
2021/06/27 03:24:44;;;;;;;17.80;16.00;;;18.10;99.90;;;;;;6124374;23;20418;-89
2021/06/27 03:27:11;;;;;;;16.43;14.80;;;18.10;99.90;;;;;;6123642;23;20432;-89
2021/06/27 03:29:38;;;;;;;17.10;15.30;;;18.20;99.90;;;;;;6124264;23;20907;-88
2021/06/27 03:32:05;;;;;;;16.47;15.07;;;18.20;99.90;;;;;;6123849;23;20747;-89
2021/06/27 03:34:32;;;;;;;16.03;14.63;;;18.10;99.90;;;;;;6124084;23;20411;-89
2021/06/27 03:37:00;;;;;;;18.10;15.40;;;18.10;99.90;;;;;;6136998;23;20464;-89
2021/06/27 03:39:27;;;;;;;16.30;14.80;;;18.00;99.90;;;;;;6141361;23;20452;-89
2021/06/27 03:41:54;;;;;;;16.80;15.20;;;18.00;99.90;;;;;;6129520;23;20907;-89
2021/06/27 03:44:21;;;;;;;15.90;12.80;;;18.00;99.90;;;;;;6128683;23;20403;-90
2021/06/27 03:46:48;;;;;;;16.27;14.90;;;18.00;99.90;;;;;;6127529;23;20444;-89
2021/06/27 03:49:15;;;;;;;15.20;14.00;;;18.00;99.90;;;;;;6127552;23;20423;-89
2021/06/27 03:51:42;;;;;;;15.60;14.23;;;18.00;99.90;;;;;;6141519;23;20389;-87
2021/06/27 03:54:10;;;;;;;15.60;14.10;;;18.00;99.90;;;;;;6140811;23;20404;-89
2021/06/27 03:56:37;;;;;;;16.00;14.30;;;18.00;99.90;;;;;;6128394;23;20411;-89
2021/06/27 03:59:04;;;;;;;16.37;14.93;;;18.10;99.90;;;;;;6128188;23;20754;-89
2021/06/27 04:01:32;;;;;;;16.60;15.00;;;18.00;99.90;;;;;;6128528;23;20419;-89
2021/06/27 04:04:00;;;;;;;16.30;14.70;;;18.10;99.90;;;;;;6139157;23;20412;-89
2021/06/27 04:06:27;;;;;;;17.77;16.27;;;18.00;99.90;;;;;;6137884;23;20436;-91
2021/06/27 04:08:54;;;;;;;15.87;14.17;;;18.10;99.90;;;;;;6143179;23;20426;-90
2021/06/27 04:11:22;;;;;;;16.63;14.80;;;18.20;99.90;;;;;;6154185;23;20473;-89
2021/06/27 04:13:49;;;;;;;16.60;15.00;;;18.20;99.90;;;;;;6154740;23;20410;-88
2021/06/27 04:16:16;;;;;;;14.37;13.00;;;18.20;99.90;;;;;;6144670;23;20418;-89
2021/06/27 04:18:42;;;;;;;15.60;14.00;;;18.20;99.90;;;;;;6154749;23;20444;-89
2021/06/27 04:21:09;;;;;;;15.93;14.30;;;18.20;99.90;;;;;;6132652;23;20774;-89
2021/06/27 04:23:38;;;;;;;14.40;13.07;;;18.20;99.90;;;;;;6130995;23;20897;-90
2021/06/27 04:26:05;;;;;;;15.67;14.10;;;18.30;99.90;;;;;;6128960;23;20445;-89
2021/06/27 04:28:33;;;;;;;15.33;13.93;;;18.30;99.90;;;;;;6145559;23;20511;-90
2021/06/27 04:31:00;;;;;;;14.50;13.27;;;18.40;99.90;;;;;;6129561;23;20473;-89
2021/06/27 04:33:27;;;;;;;14.60;13.27;;;18.40;99.90;;;;;;6150377;23;20411;-87
2021/06/27 04:35:54;;;;;;;12.50;11.50;;;18.50;99.90;;;;;;6154597;23;20406;-87
2021/06/27 04:38:23;;;;;;;14.77;13.27;;;18.50;99.90;;;;;;6139660;23;20474;-89
2021/06/27 04:40:50;;;;;;;14.03;12.73;;;18.60;99.90;;;;;;6129282;23;20891;-89
2021/06/27 04:43:17;;;;;;;14.07;12.77;;;18.70;99.90;;;;;;6128904;23;20417;-90
2021/06/27 04:45:46;;;;;;;14.00;12.80;;;18.70;99.90;;;;;;6129137;23;20393;-91
2021/06/27 04:48:12;;;;;;;14.70;13.20;;;18.70;99.90;;;;;;6129068;23;20555;-91
2021/06/27 04:50:39;;;;;;;14.50;12.90;;;18.70;99.90;;;;;;6129374;23;20422;-91
2021/06/27 04:53:10;;;;;;;14.40;13.20;;;18.80;99.90;;;;;;6129320;23;20417;-91
2021/06/27 04:55:37;;;;;;;13.10;12.00;;;18.80;99.90;;;;;;6143375;23;20392;-91
2021/06/27 04:58:06;;;;;;;14.83;13.37;;;18.80;99.90;;;;;;6136916;23;20419;-91
2021/06/27 05:00:33;;;;;;;13.33;12.00;;;18.80;99.90;;;;;;6146621;23;20384;-91
2021/06/27 05:03:01;;;;;;;13.70;12.60;;;18.90;99.90;;;;;;6139204;23;20439;-90
2021/06/27 05:05:28;;;;;;;12.97;11.60;;;19.00;99.90;;;;;;6133385;23;20476;-91
2021/06/27 05:07:55;;;;;;;13.13;11.80;;;19.00;99.90;;;;;;6142097;23;20447;-90
2021/06/27 05:10:22;;;;;;;13.67;12.40;;;19.10;99.90;;;;;;6153648;23;20405;-89
2021/06/27 05:12:49;;;;;;;16.13;12.00;;;19.10;99.90;;;;;;6154341;23;20421;-89
2021/06/27 05:15:15;;;;;;;12.07;11.07;;;19.20;99.90;;;;;;6154018;23;20866;-90
2021/06/27 05:17:42;;;;;;;13.20;11.70;;;19.20;99.90;;;;;;6155061;23;20386;-88
2021/06/27 05:20:11;;;;;;;12.60;11.50;;;19.30;99.90;;;;;;6154372;23;20410;-87
2021/06/27 05:22:38;;;;;;;13.87;12.67;;;19.30;99.90;;;;;;6154555;23;20418;-87
2021/06/27 05:25:06;;;;;;;12.73;11.53;;;19.40;99.90;;;;;;6154325;23;20418;-87
2021/06/27 05:27:33;;;;;;;12.20;11.17;;;19.70;99.90;;;;;;6153135;23;20452;-89
2021/06/27 05:30:00;;;;;;;14.83;13.30;;;19.90;99.90;;;;;;6152830;23;20430;-88
2021/06/27 05:32:26;;;;;;;12.60;11.60;;;20.30;99.90;;;;;;6152141;23;20429;-89
2021/06/27 05:34:53;;;;;;;11.97;10.87;;;20.90;99.90;;;;;;6134860;23;20412;-89
2021/06/27 05:37:21;;;;;;;11.63;10.63;;;21.40;99.90;;;;;;6132790;23;20408;-90
2021/06/27 05:39:48;;;;;;;12.13;11.13;;;21.80;99.90;;;;;;6148426;23;20430;-88
2021/06/27 05:42:17;;;;;;;11.40;10.30;;;22.30;99.90;;;;;;6153154;23;20405;-89
2021/06/27 05:44:44;;;;;;;11.33;10.37;;;22.80;99.90;;;;;;6152701;23;20407;-88
2021/06/27 05:47:11;;;;;;;11.10;9.97;;;23.20;99.90;;;;;;6152345;23;20449;-90
2021/06/27 05:49:38;;;;;;;10.40;9.50;;;23.40;99.90;;;;;;6137294;23;20415;-91
2021/06/27 05:52:05;;;;;;;10.60;9.70;;;23.50;99.90;;;;;;6131851;23;20411;-89
2021/06/27 05:54:33;;;;;;;10.87;9.97;;;23.40;99.90;;;;;;6140481;23;20395;-91
2021/06/27 05:57:00;;;;;;;11.40;10.40;;;23.40;99.90;;;;;;6134010;23;20400;-90
2021/06/27 05:59:27;;;;;;;10.47;9.67;;;23.70;99.80;;;;;;6133913;23;20432;-89
2021/06/27 06:01:53;;;;;;;10.40;9.40;;;24.00;99.00;;;;;;6133142;23;20415;-92
2021/06/27 06:04:20;;;;;;;10.87;9.93;;;24.30;98.20;;;;;;6131877;23;20424;-91
2021/06/27 06:06:47;;;;;;;10.87;9.87;;;24.20;98.10;;;;;;6131410;23;20451;-89
2021/06/27 06:09:13;;;;;;;10.77;9.97;;;24.00;97.90;;;;;;6133240;23;20424;-91
2021/06/27 06:11:42;;;;;;;10.27;9.37;;;23.80;97.90;;;;;;6143933;23;20982;-89
2021/06/27 06:14:08;;;;;;;11.60;10.70;;;23.60;98.10;;;;;;6151838;23;20404;-89
2021/06/27 06:16:35;;;;;;;11.53;10.53;;;23.50;98.70;;;;;;6139279;23;20412;-91
2021/06/27 06:19:02;;;;;;;10.20;9.50;;;23.50;99.00;;;;;;6132593;23;20428;-91
2021/06/27 06:21:29;;;;;;;11.13;10.23;;;23.90;98.90;;;;;;6128416;23;20396;-92
2021/06/27 06:23:56;;;;;;;9.90;9.20;;;24.00;98.00;;;;;;6132742;23;20429;-92
2021/06/27 06:26:22;;;;;;;9.93;9.03;;;24.00;98.40;;;;;;6132548;23;20439;-92
2021/06/27 06:28:50;;;;;;;9.37;8.47;;;24.60;98.00;;;;;;6134342;23;20428;-91
2021/06/27 06:31:17;;;;;;;10.73;9.87;;;25.50;96.20;;;;;;6135195;23;20410;-91
2021/06/27 06:33:44;;;;;;;9.60;8.90;;;25.80;94.60;;;;;;6134140;23;20482;-91
2021/06/27 06:36:11;;;;;;;9.23;8.53;;;25.80;94.30;;;;;;6151107;23;20417;-90
2021/06/27 06:38:37;;;;;;;8.97;8.07;;;26.30;93.40;;;;;;6146479;23;20507;-92
2021/06/27 06:41:04;;;;;;;10.50;9.60;;;27.00;91.80;;;;;;6142089;23;20412;-91
2021/06/27 06:43:31;;;;;;;10.43;9.53;;;26.70;91.10;;;;;;6145980;23;20422;-92
2021/06/27 06:46:01;;;;;;;8.87;8.23;;;27.00;90.70;;;;;;6135857;23;20391;-89
2021/06/27 06:48:28;;;;;;;8.57;7.97;;;27.60;90.10;;;;;;6138200;23;21013;-91
2021/06/27 06:50:55;;;;;;;9.00;8.40;;;28.00;87.90;;;;;;6147650;23;20392;-89
2021/06/27 06:53:22;;;;;;;8.67;7.97;;;28.50;84.30;;;;;;6152700;23;20396;-91
2021/06/27 06:55:48;;;;;;;8.47;7.73;;;28.40;83.10;;;;;;6131450;23;20408;-92
2021/06/27 06:58:15;;;;;;;8.57;7.97;;;28.30;84.30;;;;;;6128201;23;20427;-91
2021/06/27 07:00:42;;;;;;;8.20;7.60;;;28.30;83.80;;;;;;6130611;23;20395;-91
2021/06/27 07:03:10;;;;;;;8.40;7.80;;;28.40;83.20;;;;;;6142105;23;20799;-91
2021/06/27 07:05:37;;;;;;;8.40;7.80;;;28.10;84.40;;;;;;6151982;23;20391;-89
2021/06/27 07:08:07;;;;;;;7.70;7.20;;;27.70;84.70;;;;;;6136346;23;20475;-92
2021/06/27 07:10:34;;;;;;;8.73;7.93;;;27.30;86.40;;;;;;6144949;23;20493;-92
2021/06/27 07:13:00;;;;;;;7.70;7.00;;;27.00;87.60;;;;;;6130873;23;20411;-91
2021/06/27 07:15:28;;;;;;;8.80;7.93;;;26.80;87.60;;;;;;6129526;23;20417;-92
2021/06/27 07:17:55;;;;;;;8.40;7.80;;;27.00;88.10;;;;;;6129623;23;20474;-90
2021/06/27 07:20:23;;;;;;;8.60;7.90;;;27.20;86.90;;;;;;6129278;23;20415;-92
2021/06/27 07:22:49;;;;;;;7.50;6.90;;;27.50;85.70;;;;;;6128241;23;20432;-92
2021/06/27 07:25:16;;;;;;;7.20;6.70;;;28.60;84.40;;;;;;6132729;23;20418;-93
2021/06/27 07:27:43;;;;;;;7.87;7.27;;;29.80;79.20;;;;;;6130633;23;20970;-91
2021/06/27 07:30:11;;;;;;;8.03;7.33;;;31.00;76.40;;;;;;6130844;23;20426;-92
2021/06/27 07:32:38;;;;;;;8.40;7.80;;;32.00;71.50;;;;;;6148537;23;20479;-91
2021/06/27 07:35:06;;;;;;;9.00;8.10;;;32.40;67.90;;;;;;6139758;23;20400;-92
2021/06/27 07:37:34;;;;;;;8.20;7.60;;;32.90;65.70;;;;;;6147125;23;20407;-91
2021/06/27 07:40:01;;;;;;;7.60;7.07;;;33.00;65.20;;;;;;6129304;23;20438;-91
2021/06/27 07:42:28;;;;;;;8.17;6.90;;;33.30;64.10;;;;;;6128746;23;20588;-91
2021/06/27 07:44:55;;;;;;;7.37;6.77;;;32.80;61.60;;;;;;6127054;23;20479;-92
2021/06/27 07:47:22;;;;;;;7.70;7.20;;;31.70;64.10;;;;;;6127568;23;20822;-92
2021/06/27 07:49:49;;;;;;;7.70;7.20;;;30.80;66.70;;;;;;6131700;23;20418;-93
2021/06/27 07:52:16;;;;;;;7.87;7.27;;;30.30;70.10;;;;;;6131324;23;20430;-93
2021/06/27 07:54:44;;;;;;;6.97;6.43;;;31.60;67.10;;;;;;6150328;23;20403;-90
2021/06/27 07:57:11;;;;;;;7.47;6.77;;;33.00;63.70;;;;;;6152333;23;20452;-92
2021/06/27 07:59:38;;;;;;;11.33;8.03;;;34.20;59.50;;;;;;6145756;23;20431;-91
2021/06/27 08:02:08;;;;;;;6.97;6.50;;;34.90;57.80;;;;;;6152029;23;20404;-91
2021/06/27 08:04:37;;;;;;;7.07;6.57;;;35.30;56.00;;;;;;6139655;23;20436;-93
2021/06/27 08:07:04;;;;;;;7.47;6.87;;;35.20;55.70;;;;;;6130131;23;20486;-91
2021/06/27 08:10:19;;;;;;;6.40;6.00;;;35.70;55.60;;;;;;6132556;23;20458;-93
2021/06/27 08:16:06;;;;;;;6.80;6.30;;;36.50;53.20;;;;;;6132557;23;20414;-93
2021/06/27 08:18:35;;;;;;;6.73;6.13;;;36.10;53.40;;;;;;6142873;23;20914;-90
2021/06/27 08:21:02;;;;;;;7.10;6.70;;;36.00;53.50;;;;;;6146796;23;20395;-91
2021/06/27 08:23:29;;;;;;;5.50;5.20;;;36.60;52.90;;;;;;6148458;23;20419;-91
2021/06/27 08:25:55;;;;;;;7.10;6.70;;;37.00;52.30;;;;;;6131720;23;20957;-92
2021/06/27 08:28:24;;;;;;;6.10;5.70;;;37.30;51.90;;;;;;6142366;23;20430;-90
2021/06/27 08:30:51;;;;;;;6.67;6.17;;;37.80;50.50;;;;;;6144866;23;20412;-91
2021/06/27 08:33:22;;;;;;;6.23;5.93;;;37.90;49.50;;;;;;6139257;23;20439;-93
2021/06/27 08:35:49;;;;;;;6.17;5.80;;;37.80;49.70;;;;;;6133205;23;20384;-93
2021/06/27 08:38:18;;;;;;;5.83;5.53;;;38.00;49.20;;;;;;6131076;23;20435;-91
2021/06/27 08:40:45;;;;;;;6.70;6.20;;;38.70;48.40;;;;;;6136161;23;20380;-92
2021/06/27 08:43:12;;;;;;;5.83;5.50;;;39.40;47.30;;;;;;6130453;23;20733;-92
2021/06/27 08:45:49;;;;;;;5.90;5.60;;;39.90;46.00;;;;;;6134952;23;20412;-91
2021/06/27 08:48:18;;;;;;;6.13;5.77;;;40.10;44.80;;;;;;6140962;23;20435;-92
2021/06/27 08:50:46;;;;;;;6.50;6.10;;;39.50;45.00;;;;;;6133584;23;20400;-93
2021/06/27 08:53:13;;;;;;;6.57;6.17;;;39.60;45.50;;;;;;6139631;23;20475;-92
2021/06/27 08:55:40;;;;;;;5.73;5.23;;;40.20;44.40;;;;;;6138510;23;20499;-92
2021/06/27 08:58:09;;;;;;;5.80;5.50;;;40.40;44.10;;;;;;6133510;23;20405;-92
2021/06/27 09:00:38;;;;;;;5.50;5.20;;;39.80;44.20;;;;;;6132815;23;20891;-93
2021/06/27 09:03:06;;;;;;;6.30;5.80;;;39.60;44.50;;;;;;6136176;23;20392;-92
2021/06/27 09:05:34;;;;;;;6.10;5.70;;;39.90;44.70;;;;;;6138481;23;20836;-92
2021/06/27 09:08:27;;;;;;;5.60;5.20;;;39.50;44.60;;;;;;6138397;23;20446;-93
2021/06/27 09:10:54;;;;;;;5.57;5.27;;;38.70;45.20;;;;;;6140882;23;20404;-93
2021/06/27 09:13:41;;;;;;;5.83;5.53;;;39.20;45.40;;;;;;6141716;23;20411;-93
2021/06/27 09:16:22;;;;;;;5.50;5.10;;;39.50;44.80;;;;;;6152338;23;20387;-91
2021/06/27 09:18:49;;;;;;;5.87;5.37;;;39.10;44.10;;;;;;6153454;23;20425;-92
2021/06/27 09:21:17;;;;;;;5.00;4.70;;;39.80;44.20;;;;;;6152767;23;20459;-92
2021/06/27 09:23:48;;;;;;;5.13;4.83;;;39.40;43.90;;;;;;6153914;23;20383;-92
2021/06/27 09:26:27;;;;;;;4.90;4.50;;;38.50;44.60;;;;;;6153249;23;20388;-92
2021/06/27 09:28:54;;;;;;;5.07;4.70;;;38.30;45.60;;;;;;6145879;23;20486;-93
2021/06/27 09:31:39;;;;;;;4.77;4.47;;;39.10;44.00;;;;;;6141807;23;20434;-92
2021/06/27 09:34:08;;;;;;;3.80;3.60;;;38.50;44.30;;;;;;6133759;23;20419;-92
2021/06/27 09:36:44;;;;;;;4.60;4.30;;;39.90;42.80;;;;;;6135774;23;20411;-92
2021/06/27 09:39:15;;;;;;;4.40;4.10;;;39.30;40.70;;;;;;6140297;23;20492;-92
2021/06/27 09:41:50;;;;;;;3.70;3.50;;;39.20;40.80;;;;;;6138435;23;20392;-92
2021/06/27 09:44:18;;;;;;;3.70;3.50;;;38.70;40.20;;;;;;6134766;23;20412;-93
2021/06/27 09:46:50;;;;;;;3.70;3.40;;;38.30;40.30;;;;;;6135579;23;20427;-92
2021/06/27 09:49:19;;;;;;;3.80;3.50;;;38.00;41.70;;;;;;6130615;23;20474;-92
2021/06/27 09:51:50;;;;;;;3.70;3.50;;;38.30;40.90;;;;;;6138773;23;20479;-92
2021/06/27 09:54:20;;;;;;;3.57;3.37;;;38.50;39.80;;;;;;6141936;23;20411;-92
2021/06/27 09:56:49;;;;;;;4.20;3.90;;;38.70;39.60;;;;;;6136009;23;20380;-92
2021/06/27 09:59:17;;;;;;;3.70;3.50;;;38.20;40.30;;;;;;6132372;23;20419;-92
2021/06/27 10:01:45;;;;;;;3.67;3.37;;;37.80;40.90;;;;;;6139525;23;20419;-92
2021/06/27 10:04:13;;;;;;;4.47;4.00;;;38.40;40.50;;;;;;6138245;23;20426;-92
2021/06/27 10:06:51;;;;;;;4.00;3.70;;;39.10;39.60;;;;;;6140996;23;20388;-92
2021/06/27 10:09:22;;;;;;;3.90;3.53;;;39.10;38.90;;;;;;6139604;23;20449;-92
2021/06/27 10:11:59;;;;;;;3.87;3.67;;;39.40;38.30;;;;;;6141014;23;20416;-92
2021/06/27 10:14:27;;;;;;;3.27;2.97;;;38.00;40.00;;;;;;6141955;23;20396;-93
2021/06/27 10:16:57;;;;;;;4.13;3.50;;;37.10;41.60;;;;;;6139935;23;20415;-92
2021/06/27 10:19:25;;;;;;;3.30;3.10;;;37.20;43.10;;;;;;6134914;23;21002;-93
2021/06/27 10:21:52;;;;;;;3.43;3.23;;;38.50;41.00;;;;;;6139204;23;20446;-93
2021/06/27 10:24:22;;;;;;;3.23;3.03;;;38.80;39.80;;;;;;6132803;23;20412;-92
2021/06/27 10:26:49;;;;;;;3.80;3.50;;;39.00;39.20;;;;;;6134289;23;20415;-93
2021/06/27 10:29:19;;;;;;;3.73;3.53;;;39.70;38.00;;;;;;6148982;23;20459;-93
2021/06/27 10:31:47;;;;;;;3.63;3.33;;;38.60;38.00;;;;;;6131845;23;20447;-93
2021/06/27 10:34:14;;;;;;;3.33;2.73;;;38.40;39.40;;;;;;6138690;23;20396;-92
2021/06/27 10:36:43;;;;;;;3.20;3.00;;;37.10;40.10;;;;;;6136770;23;20407;-92
2021/06/27 10:39:12;;;;;;;3.20;3.00;;;36.40;41.90;;;;;;6133766;23;20499;-92
2021/06/27 10:41:59;;;;;;;3.20;3.00;;;36.80;41.90;;;;;;6133142;23;20392;-93
2021/06/27 10:44:27;;;;;;;3.33;3.13;;;37.40;40.00;;;;;;6134713;23;20431;-92
2021/06/27 10:46:59;;;;;;;4.07;3.67;;;36.40;41.00;;;;;;6150398;23;20419;-93
2021/06/27 10:50:02;;;;;;;4.10;3.80;;;36.40;41.70;;;;;;6151343;23;20443;-92
2021/06/27 10:52:29;;;;;;;2.77;2.57;;;36.70;40.90;;;;;;6150818;23;20383;-93
2021/06/27 10:55:16;;;;;;;4.20;3.50;;;37.00;42.30;;;;;;6151445;23;20404;-93
2021/06/27 10:58:02;;;;;;;3.00;2.80;;;37.50;40.10;;;;;;6152158;23;20506;-92
2021/06/27 11:01:05;;;;;;;3.10;2.83;;;37.30;38.50;;;;;;6145394;23;20412;-93
2021/06/27 11:03:34;;;;;;;3.20;3.00;;;38.30;38.90;;;;;;6129591;23;20418;-93
2021/06/27 11:06:03;;;;;;;3.03;2.83;;;39.00;37.50;;;;;;6134457;23;20440;-93
2021/06/27 11:08:34;;;;;;;3.30;2.93;;;39.50;37.20;;;;;;6149449;23;20427;-93
2021/06/27 11:11:09;;;;;;;3.33;3.13;;;39.70;37.10;;;;;;6137275;23;20728;-93
2021/06/27 11:13:40;;;;;;;4.07;3.77;;;38.90;37.10;;;;;;6131530;23;20458;-93
2021/06/27 11:16:21;;;;;;;3.67;3.33;;;37.20;39.40;;;;;;6141375;23;20411;-93
2021/06/27 11:18:50;;;;;;;3.20;3.00;;;36.60;40.60;;;;;;6146128;23;20446;-92
2021/06/27 11:21:21;;;;;;;3.20;3.00;;;35.90;41.00;;;;;;6149062;23;20423;-94
2021/06/27 11:24:06;;;;;;;3.30;3.10;;;35.60;42.30;;;;;;6143378;23;20442;-93
2021/06/27 11:26:56;;;;;;;3.50;3.23;;;35.90;41.90;;;;;;6135084;23;20528;-92
2021/06/27 11:29:46;;;;;;;3.83;3.60;;;37.90;40.60;;;;;;6140077;23;20448;-92
2021/06/27 11:32:48;;;;;;;3.07;2.87;;;39.00;39.40;;;;;;6138646;23;20839;-93
2021/06/27 11:35:44;;;;;;;3.37;3.10;;;39.90;37.60;;;;;;6145605;23;20479;-93
2021/06/27 11:38:37;;;;;;;2.83;2.67;;;41.00;34.80;;;;;;6149953;23;20365;-93
2021/06/27 11:41:11;;;;;;;3.23;3.00;;;40.70;34.90;;;;;;6150794;23;20403;-93
2021/06/27 11:43:54;;;;;;;2.90;2.70;;;40.70;34.40;;;;;;6152935;23;20404;-91
2021/06/27 11:46:34;;;;;;;3.43;3.23;;;40.00;34.90;;;;;;6151399;23;20372;-94
2021/06/27 11:49:06;;;;;;;2.57;2.20;;;41.70;34.00;;;;;;6142069;23;20474;-93
2021/06/27 11:51:35;;;;;;;3.27;3.07;;;41.40;34.20;;;;;;6140716;23;20447;-86
2021/06/27 11:54:03;;;;;;;3.20;2.97;;;42.50;32.70;;;;;;6131304;23;20414;-86
2021/06/27 11:56:52;;;;;;;3.20;3.00;;;41.10;34.60;;;;;;6128392;23;20414;-86
2021/06/27 11:59:20;;;;;;;3.43;3.23;;;41.20;34.00;;;;;;6133778;23;20432;-85
2021/06/27 12:02:13;;;;;;;3.17;2.97;;;40.80;33.70;;;;;;6129513;23;20514;-86
2021/06/27 12:04:42;;;;;;;3.33;3.03;;;39.50;34.20;;;;;;6135903;23;20387;-85
2021/06/27 12:07:29;;;;;;;3.80;3.60;;;39.10;35.00;;;;;;6129513;23;20411;-86
2021/06/27 12:09:57;;;;;;;3.33;3.03;;;39.40;35.60;;;;;;6128026;23;20442;-85
2021/06/27 12:12:38;;;;;;;3.17;2.97;;;39.90;34.20;;;;;;6127595;23;20774;-85
2021/06/27 12:15:06;;;;;;;3.13;2.83;;;39.50;34.50;;;;;;6127898;23;20415;-85
2021/06/27 12:17:35;;;;;;;3.00;2.80;;;40.40;34.50;;;;;;6127043;23;20426;-85
2021/06/27 12:20:03;;;;;;;3.20;3.00;;;40.90;32.90;;;;;;6128454;23;20404;-86
2021/06/27 12:22:30;;;;;;;3.27;3.07;;;40.70;33.70;;;;;;6128292;23;20439;-86
2021/06/27 12:25:04;;;;;;;3.20;3.00;;;40.90;34.10;;;;;;6127719;23;20416;-85
2021/06/27 12:27:31;;;;;;;3.23;3.03;;;41.40;33.80;;;;;;6129733;23;20411;-87
2021/06/27 12:29:58;;;;;;;3.33;3.13;;;41.20;33.90;;;;;;6129924;23;20973;-86
2021/06/27 12:32:25;;;;;;;3.20;3.00;;;40.40;35.00;;;;;;6149717;23;20451;-85
2021/06/27 12:35:27;;;;;;;2.80;2.60;;;40.20;34.90;;;;;;6145044;23;20510;-86
2021/06/27 12:37:54;;;;;;;2.57;2.30;;;40.10;35.60;;;;;;6130214;23;20985;-86
2021/06/27 12:40:20;;;;;;;2.97;2.77;;;40.00;34.90;;;;;;6131083;23;20890;-86
2021/06/27 12:42:47;;;;;;;3.00;2.80;;;40.00;35.20;;;;;;6128621;23;20431;-86
2021/06/27 12:45:17;;;;;;;2.93;2.73;;;39.50;34.50;;;;;;6138441;23;20403;-86
2021/06/27 12:47:44;;;;;;;3.13;2.93;;;39.30;34.30;;;;;;6130555;23;20498;-85
2021/06/27 12:50:12;;;;;;;2.80;2.60;;;39.40;35.30;;;;;;6135689;23;20462;-86
2021/06/27 12:52:40;;;;;;;3.47;3.27;;;39.90;34.50;;;;;;6133552;23;20970;-86